sensor_id;sensor_type;location;lat;lon;timestamp;P1;durP1;ratioP1;P2;durP2;ratioP2
76667;SDS011;65585;51.166;16.922;2023-02-23T00:00:24;18.25;;;9.60;;
76667;SDS011;65585;51.166;16.922;2023-02-23T00:03:11;20.13;;;10.50;;
76667;SDS011;65585;51.166;16.922;2023-02-23T00:05:37;22.45;;;11.85;;
76667;SDS011;65585;51.166;16.922;2023-02-23T00:08:09;28.85;;;11.00;;
76667;SDS011;65585;51.166;16.922;2023-02-23T00:10:36;24.75;;;10.75;;
76667;SDS011;65585;51.166;16.922;2023-02-23T00:13:02;26.20;;;11.90;;
76667;SDS011;65585;51.166;16.922;2023-02-23T00:15:29;18.80;;;9.20;;
76667;SDS011;65585;51.166;16.922;2023-02-23T00:17:56;24.65;;;10.98;;
76667;SDS011;65585;51.166;16.922;2023-02-23T00:20:23;21.75;;;10.98;;
76667;SDS011;65585;51.166;16.922;2023-02-23T00:22:55;20.40;;;11.38;;
76667;SDS011;65585;51.166;16.922;2023-02-23T00:25:23;25.35;;;11.25;;
76667;SDS011;65585;51.166;16.922;2023-02-23T00:27:50;26.13;;;11.95;;
76667;SDS011;65585;51.166;16.922;2023-02-23T00:30:17;23.10;;;11.50;;
76667;SDS011;65585;51.166;16.922;2023-02-23T00:32:44;23.33;;;12.07;;
76667;SDS011;65585;51.166;16.922;2023-02-23T00:35:11;20.10;;;10.85;;
76667;SDS011;65585;51.166;16.922;2023-02-23T00:37:44;19.50;;;10.95;;
76667;SDS011;65585;51.166;16.922;2023-02-23T00:40:13;22.58;;;11.38;;
76667;SDS011;65585;51.166;16.922;2023-02-23T00:42:44;26.60;;;12.15;;
76667;SDS011;65585;51.166;16.922;2023-02-23T00:45:12;20.33;;;11.80;;
76667;SDS011;65585;51.166;16.922;2023-02-23T00:47:39;27.08;;;11.63;;
76667;SDS011;65585;51.166;16.922;2023-02-23T00:50:11;24.33;;;11.40;;
76667;SDS011;65585;51.166;16.922;2023-02-23T00:52:44;31.98;;;12.45;;
76667;SDS011;65585;51.166;16.922;2023-02-23T00:55:11;25.27;;;11.52;;
76667;SDS011;65585;51.166;16.922;2023-02-23T00:57:37;22.15;;;10.93;;
76667;SDS011;65585;51.166;16.922;2023-02-23T01:00:04;28.33;;;12.25;;
76667;SDS011;65585;51.166;16.922;2023-02-23T01:02:58;29.20;;;12.38;;
76667;SDS011;65585;51.166;16.922;2023-02-23T01:05:24;22.75;;;11.05;;
76667;SDS011;65585;51.166;16.922;2023-02-23T01:07:50;19.70;;;10.98;;
76667;SDS011;65585;51.166;16.922;2023-02-23T01:10:17;23.10;;;10.88;;
76667;SDS011;65585;51.166;16.922;2023-02-23T01:12:45;27.75;;;12.90;;
76667;SDS011;65585;51.166;16.922;2023-02-23T01:15:13;19.95;;;10.00;;
76667;SDS011;65585;51.166;16.922;2023-02-23T01:17:39;22.45;;;11.27;;
76667;SDS011;65585;51.166;16.922;2023-02-23T01:20:05;22.77;;;12.00;;
76667;SDS011;65585;51.166;16.922;2023-02-23T01:22:41;24.98;;;10.75;;
76667;SDS011;65585;51.166;16.922;2023-02-23T01:25:08;23.10;;;11.23;;
76667;SDS011;65585;51.166;16.922;2023-02-23T01:27:35;25.30;;;12.45;;
76667;SDS011;65585;51.166;16.922;2023-02-23T01:30:01;24.58;;;10.60;;
76667;SDS011;65585;51.166;16.922;2023-02-23T01:32:27;28.27;;;12.63;;
76667;SDS011;65585;51.166;16.922;2023-02-23T01:35:02;21.27;;;11.75;;
76667;SDS011;65585;51.166;16.922;2023-02-23T01:38:36;25.13;;;11.23;;
76667;SDS011;65585;51.166;16.922;2023-02-23T01:45:33;21.00;;;10.57;;
76667;SDS011;65585;51.166;16.922;2023-02-23T01:52:18;24.25;;;12.55;;
76667;SDS011;65585;51.166;16.922;2023-02-23T02:11:01;17.10;;;10.75;;
76667;SDS011;65585;51.166;16.922;2023-02-23T02:23:49;23.65;;;12.30;;
76667;SDS011;65585;51.166;16.922;2023-02-23T02:30:20;24.80;;;10.70;;
76667;SDS011;65585;51.166;16.922;2023-02-23T02:41:51;21.40;;;10.90;;
76667;SDS011;65585;51.166;16.922;2023-02-23T02:44:37;24.50;;;11.98;;
76667;SDS011;65585;51.166;16.922;2023-02-23T02:47:11;18.58;;;9.88;;
76667;SDS011;65585;51.166;16.922;2023-02-23T02:53:00;24.20;;;12.13;;
76667;SDS011;65585;51.166;16.922;2023-02-23T02:56:26;23.65;;;11.18;;
76667;SDS011;65585;51.166;16.922;2023-02-23T02:59:55;23.30;;;10.57;;
76667;SDS011;65585;51.166;16.922;2023-02-23T03:37:43;26.60;;;11.98;;
76667;SDS011;65585;51.166;16.922;2023-02-23T03:42:56;24.48;;;13.60;;
76667;SDS011;65585;51.166;16.922;2023-02-23T03:45:43;26.98;;;12.13;;
76667;SDS011;65585;51.166;16.922;2023-02-23T03:48:30;21.55;;;12.38;;
76667;SDS011;65585;51.166;16.922;2023-02-23T03:54:34;27.58;;;12.40;;
76667;SDS011;65585;51.166;16.922;2023-02-23T03:58:09;29.35;;;12.95;;
76667;SDS011;65585;51.166;16.922;2023-02-23T04:03:56;26.85;;;13.25;;
76667;SDS011;65585;51.166;16.922;2023-02-23T04:06:42;30.70;;;13.82;;
76667;SDS011;65585;51.166;16.922;2023-02-23T04:09:29;27.33;;;14.18;;
76667;SDS011;65585;51.166;16.922;2023-02-23T04:15:09;29.25;;;14.65;;
76667;SDS011;65585;51.166;16.922;2023-02-23T04:17:38;27.05;;;13.75;;
76667;SDS011;65585;51.166;16.922;2023-02-23T04:20:05;31.63;;;15.43;;
76667;SDS011;65585;51.166;16.922;2023-02-23T04:22:32;33.45;;;16.05;;
76667;SDS011;65585;51.166;16.922;2023-02-23T04:24:59;26.38;;;12.68;;
76667;SDS011;65585;51.166;16.922;2023-02-23T04:27:33;35.13;;;14.68;;
76667;SDS011;65585;51.166;16.922;2023-02-23T04:34:52;28.00;;;13.32;;
76667;SDS011;65585;51.166;16.922;2023-02-23T04:44:10;31.42;;;15.98;;
76667;SDS011;65585;51.166;16.922;2023-02-23T04:46:37;34.17;;;16.75;;
76667;SDS011;65585;51.166;16.922;2023-02-23T04:49:02;27.88;;;13.32;;
76667;SDS011;65585;51.166;16.922;2023-02-23T04:51:29;40.30;;;16.77;;
76667;SDS011;65585;51.166;16.922;2023-02-23T04:53:57;33.90;;;16.42;;
76667;SDS011;65585;51.166;16.922;2023-02-23T04:56:23;32.85;;;15.88;;
76667;SDS011;65585;51.166;16.922;2023-02-23T04:58:49;31.30;;;17.08;;
76667;SDS011;65585;51.166;16.922;2023-02-23T05:12:08;35.78;;;15.85;;
76667;SDS011;65585;51.166;16.922;2023-02-23T05:14:34;34.95;;;15.60;;
76667;SDS011;65585;51.166;16.922;2023-02-23T05:17:01;39.45;;;19.25;;
76667;SDS011;65585;51.166;16.922;2023-02-23T05:19:27;31.27;;;14.68;;
76667;SDS011;65585;51.166;16.922;2023-02-23T05:21:53;38.60;;;17.80;;
76667;SDS011;65585;51.166;16.922;2023-02-23T05:24:19;31.67;;;16.13;;
76667;SDS011;65585;51.166;16.922;2023-02-23T05:26:45;37.17;;;18.15;;
76667;SDS011;65585;51.166;16.922;2023-02-23T05:29:12;32.50;;;15.68;;
76667;SDS011;65585;51.166;16.922;2023-02-23T05:31:38;43.53;;;19.58;;
76667;SDS011;65585;51.166;16.922;2023-02-23T05:34:05;37.90;;;19.73;;
76667;SDS011;65585;51.166;16.922;2023-02-23T05:36:31;33.97;;;17.13;;
76667;SDS011;65585;51.166;16.922;2023-02-23T05:47:04;39.45;;;19.88;;
76667;SDS011;65585;51.166;16.922;2023-02-23T06:01:38;32.08;;;16.70;;
76667;SDS011;65585;51.166;16.922;2023-02-23T06:05:02;43.63;;;18.17;;
76667;SDS011;65585;51.166;16.922;2023-02-23T06:08:14;39.92;;;19.73;;
76667;SDS011;65585;51.166;16.922;2023-02-23T06:11:38;23.70;;;13.38;;
76667;SDS011;65585;51.166;16.922;2023-02-23T06:29:46;50.30;;;27.42;;
76667;SDS011;65585;51.166;16.922;2023-02-23T06:33:19;43.45;;;21.65;;
76667;SDS011;65585;51.166;16.922;2023-02-23T06:36:34;30.08;;;17.02;;
76667;SDS011;65585;51.166;16.922;2023-02-23T06:39:03;43.90;;;21.60;;
76667;SDS011;65585;51.166;16.922;2023-02-23T06:41:31;33.42;;;19.48;;
76667;SDS011;65585;51.166;16.922;2023-02-23T06:43:57;44.10;;;25.42;;
76667;SDS011;65585;51.166;16.922;2023-02-23T06:46:23;44.40;;;25.67;;
76667;SDS011;65585;51.166;16.922;2023-02-23T06:48:55;43.80;;;23.58;;
76667;SDS011;65585;51.166;16.922;2023-02-23T06:51:21;44.70;;;22.90;;
76667;SDS011;65585;51.166;16.922;2023-02-23T06:53:49;47.00;;;22.60;;
76667;SDS011;65585;51.166;16.922;2023-02-23T06:56:16;48.60;;;24.30;;
76667;SDS011;65585;51.166;16.922;2023-02-23T06:58:43;33.90;;;19.80;;
76667;SDS011;65585;51.166;16.922;2023-02-23T07:11:28;47.80;;;24.02;;
76667;SDS011;65585;51.166;16.922;2023-02-23T07:13:58;62.78;;;25.80;;
76667;SDS011;65585;51.166;16.922;2023-02-23T07:16:26;57.63;;;28.13;;
76667;SDS011;65585;51.166;16.922;2023-02-23T07:18:53;50.78;;;22.90;;
76667;SDS011;65585;51.166;16.922;2023-02-23T07:21:20;56.03;;;27.67;;
76667;SDS011;65585;51.166;16.922;2023-02-23T07:23:46;55.38;;;27.92;;
76667;SDS011;65585;51.166;16.922;2023-02-23T07:26:14;62.03;;;27.90;;
76667;SDS011;65585;51.166;16.922;2023-02-23T07:28:42;102.00;;;34.67;;
76667;SDS011;65585;51.166;16.922;2023-02-23T07:31:08;71.38;;;30.77;;
76667;SDS011;65585;51.166;16.922;2023-02-23T07:33:35;52.03;;;23.40;;
76667;SDS011;65585;51.166;16.922;2023-02-23T07:36:01;49.20;;;22.88;;
76667;SDS011;65585;51.166;16.922;2023-02-23T07:38:27;56.30;;;26.35;;
76667;SDS011;65585;51.166;16.922;2023-02-23T07:40:53;45.88;;;23.92;;
76667;SDS011;65585;51.166;16.922;2023-02-23T07:43:19;57.47;;;27.73;;
76667;SDS011;65585;51.166;16.922;2023-02-23T07:45:47;54.83;;;25.00;;
76667;SDS011;65585;51.166;16.922;2023-02-23T07:48:14;51.50;;;25.98;;
76667;SDS011;65585;51.166;16.922;2023-02-23T07:50:40;41.88;;;21.25;;
76667;SDS011;65585;51.166;16.922;2023-02-23T07:53:07;45.90;;;23.58;;
76667;SDS011;65585;51.166;16.922;2023-02-23T07:55:33;42.05;;;21.48;;
76667;SDS011;65585;51.166;16.922;2023-02-23T07:57:59;44.63;;;22.35;;
76667;SDS011;65585;51.166;16.922;2023-02-23T08:00:26;41.97;;;20.33;;
76667;SDS011;65585;51.166;16.922;2023-02-23T08:02:52;52.03;;;25.70;;
76667;SDS011;65585;51.166;16.922;2023-02-23T08:05:18;55.47;;;26.45;;
76667;SDS011;65585;51.166;16.922;2023-02-23T08:17:58;46.17;;;24.45;;
76667;SDS011;65585;51.166;16.922;2023-02-23T08:20:24;60.95;;;30.38;;
76667;SDS011;65585;51.166;16.922;2023-02-23T08:22:52;67.85;;;33.53;;
76667;SDS011;65585;51.166;16.922;2023-02-23T08:25:21;68.10;;;31.85;;
76667;SDS011;65585;51.166;16.922;2023-02-23T08:27:48;47.72;;;22.50;;
76667;SDS011;65585;51.166;16.922;2023-02-23T08:30:19;49.00;;;31.05;;
76667;SDS011;65585;51.166;16.922;2023-02-23T08:32:46;47.25;;;31.35;;
76667;SDS011;65585;51.166;16.922;2023-02-23T08:35:13;45.15;;;25.77;;
76667;SDS011;65585;51.166;16.922;2023-02-23T08:37:39;50.33;;;26.10;;
76667;SDS011;65585;51.166;16.922;2023-02-23T08:40:10;41.22;;;24.02;;
76667;SDS011;65585;51.166;16.922;2023-02-23T08:42:43;46.88;;;21.40;;
76667;SDS011;65585;51.166;16.922;2023-02-23T08:45:10;45.17;;;22.52;;
76667;SDS011;65585;51.166;16.922;2023-02-23T08:55:29;35.10;;;19.85;;
76667;SDS011;65585;51.166;16.922;2023-02-23T08:57:56;40.83;;;22.52;;
76667;SDS011;65585;51.166;16.922;2023-02-23T09:00:23;41.03;;;22.25;;
76667;SDS011;65585;51.166;16.922;2023-02-23T09:02:49;44.97;;;23.35;;
76667;SDS011;65585;51.166;16.922;2023-02-23T09:05:16;44.35;;;22.10;;
76667;SDS011;65585;51.166;16.922;2023-02-23T09:07:44;42.90;;;22.40;;
76667;SDS011;65585;51.166;16.922;2023-02-23T09:12:38;39.97;;;21.60;;
76667;SDS011;65585;51.166;16.922;2023-02-23T09:15:04;35.05;;;21.20;;
76667;SDS011;65585;51.166;16.922;2023-02-23T09:25:29;45.38;;;21.80;;
76667;SDS011;65585;51.166;16.922;2023-02-23T09:27:57;36.35;;;20.73;;
76667;SDS011;65585;51.166;16.922;2023-02-23T09:30:24;36.47;;;21.75;;
76667;SDS011;65585;51.166;16.922;2023-02-23T09:32:52;35.65;;;20.27;;
76667;SDS011;65585;51.166;16.922;2023-02-23T09:35:20;36.15;;;20.45;;
76667;SDS011;65585;51.166;16.922;2023-02-23T09:37:53;38.47;;;21.13;;
76667;SDS011;65585;51.166;16.922;2023-02-23T09:40:24;43.47;;;22.65;;
76667;SDS011;65585;51.166;16.922;2023-02-23T09:42:57;42.28;;;22.10;;
76667;SDS011;65585;51.166;16.922;2023-02-23T09:45:32;40.00;;;21.80;;
76667;SDS011;65585;51.166;16.922;2023-02-23T09:50:58;34.20;;;19.58;;
76667;SDS011;65585;51.166;16.922;2023-02-23T09:57:06;37.20;;;18.88;;
76667;SDS011;65585;51.166;16.922;2023-02-23T09:59:38;36.67;;;20.17;;
76667;SDS011;65585;51.166;16.922;2023-02-23T10:04:47;43.70;;;21.02;;
76667;SDS011;65585;51.166;16.922;2023-02-23T10:07:19;34.67;;;18.85;;
76667;SDS011;65585;51.166;16.922;2023-02-23T10:09:58;34.60;;;18.20;;
76667;SDS011;65585;51.166;16.922;2023-02-23T10:26:06;33.55;;;19.75;;
76667;SDS011;65585;51.166;16.922;2023-02-23T10:28:35;29.83;;;17.50;;
76667;SDS011;65585;51.166;16.922;2023-02-23T10:31:03;31.38;;;18.80;;
76667;SDS011;65585;51.166;16.922;2023-02-23T10:33:59;28.77;;;18.08;;
76667;SDS011;65585;51.166;16.922;2023-02-23T10:36:30;34.40;;;19.83;;
76667;SDS011;65585;51.166;16.922;2023-02-23T10:39:05;30.92;;;19.13;;
76667;SDS011;65585;51.166;16.922;2023-02-23T10:41:33;31.60;;;18.13;;
76667;SDS011;65585;51.166;16.922;2023-02-23T10:44:00;35.35;;;19.08;;
76667;SDS011;65585;51.166;16.922;2023-02-23T10:46:30;30.98;;;18.00;;
76667;SDS011;65585;51.166;16.922;2023-02-23T10:49:03;29.15;;;18.52;;
76667;SDS011;65585;51.166;16.922;2023-02-23T10:59:28;32.35;;;17.65;;
76667;SDS011;65585;51.166;16.922;2023-02-23T11:01:55;30.38;;;19.58;;
76667;SDS011;65585;51.166;16.922;2023-02-23T11:04:28;35.15;;;18.85;;
76667;SDS011;65585;51.166;16.922;2023-02-23T11:07:15;29.02;;;19.17;;
76667;SDS011;65585;51.166;16.922;2023-02-23T11:09:43;34.72;;;18.42;;
76667;SDS011;65585;51.166;16.922;2023-02-23T11:12:23;29.75;;;17.45;;
76667;SDS011;65585;51.166;16.922;2023-02-23T11:28:02;32.38;;;17.63;;
76667;SDS011;65585;51.166;16.922;2023-02-23T11:30:31;26.83;;;16.70;;
76667;SDS011;65585;51.166;16.922;2023-02-23T11:33:02;34.03;;;17.90;;
76667;SDS011;65585;51.166;16.922;2023-02-23T11:35:35;25.73;;;17.63;;
76667;SDS011;65585;51.166;16.922;2023-02-23T11:41:09;26.52;;;16.48;;
76667;SDS011;65585;51.166;16.922;2023-02-23T11:43:47;30.00;;;17.83;;
76667;SDS011;65585;51.166;16.922;2023-02-23T11:46:17;31.90;;;16.95;;
76667;SDS011;65585;51.166;16.922;2023-02-23T11:56:31;28.83;;;15.35;;
76667;SDS011;65585;51.166;16.922;2023-02-23T11:59:03;28.80;;;16.67;;
76667;SDS011;65585;51.166;16.922;2023-02-23T12:04:06;30.50;;;17.38;;
76667;SDS011;65585;51.166;16.922;2023-02-23T12:06:36;28.08;;;15.93;;
76667;SDS011;65585;51.166;16.922;2023-02-23T12:11:53;30.05;;;17.75;;
76667;SDS011;65585;51.166;16.922;2023-02-23T12:14:36;32.00;;;18.83;;
76667;SDS011;65585;51.166;16.922;2023-02-23T12:17:44;29.60;;;17.52;;
76667;SDS011;65585;51.166;16.922;2023-02-23T12:20:21;31.55;;;18.77;;
76667;SDS011;65585;51.166;16.922;2023-02-23T12:35:41;28.92;;;16.63;;
76667;SDS011;65585;51.166;16.922;2023-02-23T12:40:38;28.58;;;17.58;;
76667;SDS011;65585;51.166;16.922;2023-02-23T12:46:04;31.88;;;17.65;;
76667;SDS011;65585;51.166;16.922;2023-02-23T12:48:45;32.78;;;17.30;;
76667;SDS011;65585;51.166;16.922;2023-02-23T12:51:21;35.85;;;18.35;;
76667;SDS011;65585;51.166;16.922;2023-02-23T13:01:55;31.02;;;17.45;;
76667;SDS011;65585;51.166;16.922;2023-02-23T13:18:10;35.05;;;17.35;;
76667;SDS011;65585;51.166;16.922;2023-02-23T13:31:40;30.65;;;17.50;;
76667;SDS011;65585;51.166;16.922;2023-02-23T13:34:27;28.48;;;16.92;;
76667;SDS011;65585;51.166;16.922;2023-02-23T13:36:56;31.90;;;18.33;;
76667;SDS011;65585;51.166;16.922;2023-02-23T13:42:13;31.17;;;17.92;;
76667;SDS011;65585;51.166;16.922;2023-02-23T13:57:46;25.90;;;16.23;;
76667;SDS011;65585;51.166;16.922;2023-02-23T14:00:17;27.27;;;16.55;;
76667;SDS011;65585;51.166;16.922;2023-02-23T14:02:44;27.52;;;16.85;;
76667;SDS011;65585;51.166;16.922;2023-02-23T14:07:40;27.00;;;16.13;;
76667;SDS011;65585;51.166;16.922;2023-02-23T14:10:13;31.20;;;18.23;;
76667;SDS011;65585;51.166;16.922;2023-02-23T14:13:04;32.88;;;19.25;;
76667;SDS011;65585;51.166;16.922;2023-02-23T14:15:39;31.08;;;16.35;;
76667;SDS011;65585;51.166;16.922;2023-02-23T14:33:34;27.05;;;16.02;;
76667;SDS011;65585;51.166;16.922;2023-02-23T14:41:22;28.52;;;17.17;;
76667;SDS011;65585;51.166;16.922;2023-02-23T14:43:53;30.33;;;17.70;;
76667;SDS011;65585;51.166;16.922;2023-02-23T14:46:30;34.53;;;19.17;;
76667;SDS011;65585;51.166;16.922;2023-02-23T14:49:00;28.70;;;17.02;;
76667;SDS011;65585;51.166;16.922;2023-02-23T14:51:35;24.73;;;15.88;;
76667;SDS011;65585;51.166;16.922;2023-02-23T14:56:55;32.90;;;17.05;;
76667;SDS011;65585;51.166;16.922;2023-02-23T15:05:13;29.88;;;16.27;;
76667;SDS011;65585;51.166;16.922;2023-02-23T15:07:43;25.55;;;15.70;;
76667;SDS011;65585;51.166;16.922;2023-02-23T15:10:17;29.77;;;15.95;;
76667;SDS011;65585;51.166;16.922;2023-02-23T15:15:43;30.30;;;15.20;;
76667;SDS011;65585;51.166;16.922;2023-02-23T15:18:16;27.77;;;16.33;;
76667;SDS011;65585;51.166;16.922;2023-02-23T15:20:47;32.10;;;17.20;;
76667;SDS011;65585;51.166;16.922;2023-02-23T15:23:14;33.13;;;17.48;;
76667;SDS011;65585;51.166;16.922;2023-02-23T15:25:43;40.58;;;20.63;;
76667;SDS011;65585;51.166;16.922;2023-02-23T15:28:20;27.30;;;15.40;;
76667;SDS011;65585;51.166;16.922;2023-02-23T15:31:04;29.48;;;15.98;;
76667;SDS011;65585;51.166;16.922;2023-02-23T15:33:37;38.78;;;21.17;;
76667;SDS011;65585;51.166;16.922;2023-02-23T15:38:33;33.65;;;17.98;;
76667;SDS011;65585;51.166;16.922;2023-02-23T15:49:16;27.00;;;15.65;;
76667;SDS011;65585;51.166;16.922;2023-02-23T15:51:48;26.33;;;15.60;;
76667;SDS011;65585;51.166;16.922;2023-02-23T15:54:17;26.52;;;15.50;;
76667;SDS011;65585;51.166;16.922;2023-02-23T15:56:47;26.75;;;16.80;;
76667;SDS011;65585;51.166;16.922;2023-02-23T15:59:21;25.35;;;14.07;;
76667;SDS011;65585;51.166;16.922;2023-02-23T16:01:53;31.52;;;17.42;;
76667;SDS011;65585;51.166;16.922;2023-02-23T16:04:19;27.58;;;16.17;;
76667;SDS011;65585;51.166;16.922;2023-02-23T16:06:52;30.48;;;16.80;;
76667;SDS011;65585;51.166;16.922;2023-02-23T16:11:50;28.58;;;17.10;;
76667;SDS011;65585;51.166;16.922;2023-02-23T16:14:19;32.70;;;18.95;;
76667;SDS011;65585;51.166;16.922;2023-02-23T16:16:47;57.95;;;27.75;;
76667;SDS011;65585;51.166;16.922;2023-02-23T16:19:17;46.47;;;23.75;;
76667;SDS011;65585;51.166;16.922;2023-02-23T16:21:46;39.25;;;21.75;;
76667;SDS011;65585;51.166;16.922;2023-02-23T16:24:26;43.00;;;22.67;;
76667;SDS011;65585;51.166;16.922;2023-02-23T16:34:48;39.78;;;23.27;;
76667;SDS011;65585;51.166;16.922;2023-02-23T16:37:23;51.05;;;23.85;;
76667;SDS011;65585;51.166;16.922;2023-02-23T16:39:53;41.67;;;22.65;;
76667;SDS011;65585;51.166;16.922;2023-02-23T16:42:30;44.58;;;25.02;;
76667;SDS011;65585;51.166;16.922;2023-02-23T16:44:57;43.70;;;24.05;;
76667;SDS011;65585;51.166;16.922;2023-02-23T16:49:57;39.17;;;22.33;;
76667;SDS011;65585;51.166;16.922;2023-02-23T16:52:24;43.33;;;24.98;;
76667;SDS011;65585;51.166;16.922;2023-02-23T16:54:50;47.40;;;24.20;;
76667;SDS011;65585;51.166;16.922;2023-02-23T16:57:18;57.90;;;29.25;;
76667;SDS011;65585;51.166;16.922;2023-02-23T16:59:47;57.13;;;29.65;;
76667;SDS011;65585;51.166;16.922;2023-02-23T17:02:17;42.60;;;23.85;;
76667;SDS011;65585;51.166;16.922;2023-02-23T17:12:29;50.22;;;26.48;;
76667;SDS011;65585;51.166;16.922;2023-02-23T17:14:56;49.50;;;27.70;;
76667;SDS011;65585;51.166;16.922;2023-02-23T17:17:24;58.55;;;28.98;;
76667;SDS011;65585;51.166;16.922;2023-02-23T17:19:50;56.13;;;28.83;;
76667;SDS011;65585;51.166;16.922;2023-02-23T17:22:16;59.10;;;30.20;;
76667;SDS011;65585;51.166;16.922;2023-02-23T17:24:43;59.05;;;29.45;;
76667;SDS011;65585;51.166;16.922;2023-02-23T17:27:08;57.95;;;29.98;;
76667;SDS011;65585;51.166;16.922;2023-02-23T17:29:36;56.35;;;27.75;;
76667;SDS011;65585;51.166;16.922;2023-02-23T17:32:02;55.63;;;29.40;;
76667;SDS011;65585;51.166;16.922;2023-02-23T17:34:29;54.85;;;26.92;;
76667;SDS011;65585;51.166;16.922;2023-02-23T17:36:55;52.75;;;26.70;;
76667;SDS011;65585;51.166;16.922;2023-02-23T17:39:21;45.97;;;23.88;;
76667;SDS011;65585;51.166;16.922;2023-02-23T17:57:22;60.33;;;30.20;;
76667;SDS011;65585;51.166;16.922;2023-02-23T17:59:50;65.38;;;32.72;;
76667;SDS011;65585;51.166;16.922;2023-02-23T18:02:18;59.53;;;31.48;;
76667;SDS011;65585;51.166;16.922;2023-02-23T18:04:46;56.47;;;29.77;;
76667;SDS011;65585;51.166;16.922;2023-02-23T18:07:12;57.80;;;29.38;;
76667;SDS011;65585;51.166;16.922;2023-02-23T18:09:39;51.08;;;27.65;;
76667;SDS011;65585;51.166;16.922;2023-02-23T18:12:06;50.75;;;29.17;;
76667;SDS011;65585;51.166;16.922;2023-02-23T18:14:33;51.15;;;29.92;;
76667;SDS011;65585;51.166;16.922;2023-02-23T18:17:00;52.42;;;30.42;;
76667;SDS011;65585;51.166;16.922;2023-02-23T18:29:47;52.38;;;30.65;;
76667;SDS011;65585;51.166;16.922;2023-02-23T18:32:14;59.22;;;32.63;;
76667;SDS011;65585;51.166;16.922;2023-02-23T18:34:41;54.33;;;29.50;;
76667;SDS011;65585;51.166;16.922;2023-02-23T18:37:07;46.83;;;28.10;;
76667;SDS011;65585;51.166;16.922;2023-02-23T18:39:34;51.20;;;31.40;;
76667;SDS011;65585;51.166;16.922;2023-02-23T18:42:01;52.10;;;28.15;;
76667;SDS011;65585;51.166;16.922;2023-02-23T18:44:28;52.65;;;26.85;;
76667;SDS011;65585;51.166;16.922;2023-02-23T18:46:54;51.95;;;28.90;;
76667;SDS011;65585;51.166;16.922;2023-02-23T18:49:21;54.45;;;29.95;;
76667;SDS011;65585;51.166;16.922;2023-02-23T18:51:49;52.33;;;27.77;;
76667;SDS011;65585;51.166;16.922;2023-02-23T18:54:15;48.88;;;26.27;;
76667;SDS011;65585;51.166;16.922;2023-02-23T19:04:33;55.72;;;28.95;;
76667;SDS011;65585;51.166;16.922;2023-02-23T19:07:01;48.58;;;26.95;;
76667;SDS011;65585;51.166;16.922;2023-02-23T19:09:27;50.95;;;28.55;;
76667;SDS011;65585;51.166;16.922;2023-02-23T19:11:54;50.42;;;28.98;;
76667;SDS011;65585;51.166;16.922;2023-02-23T19:14:37;59.92;;;29.23;;
76667;SDS011;65585;51.166;16.922;2023-02-23T19:17:06;61.17;;;29.65;;
76667;SDS011;65585;51.166;16.922;2023-02-23T19:19:34;59.88;;;29.48;;
76667;SDS011;65585;51.166;16.922;2023-02-23T19:22:27;52.33;;;28.08;;
76667;SDS011;65585;51.166;16.922;2023-02-23T19:24:56;53.22;;;27.92;;
76667;SDS011;65585;51.166;16.922;2023-02-23T19:27:22;51.92;;;27.42;;
76667;SDS011;65585;51.166;16.922;2023-02-23T19:37:34;54.28;;;28.70;;
76667;SDS011;65585;51.166;16.922;2023-02-23T19:40:05;51.60;;;27.35;;
76667;SDS011;65585;51.166;16.922;2023-02-23T19:42:32;52.83;;;26.95;;
76667;SDS011;65585;51.166;16.922;2023-02-23T19:45:08;54.00;;;27.35;;
76667;SDS011;65585;51.166;16.922;2023-02-23T19:47:36;48.85;;;27.25;;
76667;SDS011;65585;51.166;16.922;2023-02-23T19:50:04;52.60;;;26.85;;
76667;SDS011;65585;51.166;16.922;2023-02-23T19:52:33;54.85;;;27.13;;
76667;SDS011;65585;51.166;16.922;2023-02-23T19:55:00;51.97;;;28.13;;
76667;SDS011;65585;51.166;16.922;2023-02-23T20:07:47;55.70;;;27.08;;
76667;SDS011;65585;51.166;16.922;2023-02-23T20:10:14;48.10;;;24.40;;
76667;SDS011;65585;51.166;16.922;2023-02-23T20:12:40;47.40;;;24.17;;
76667;SDS011;65585;51.166;16.922;2023-02-23T20:15:08;45.08;;;24.98;;
76667;SDS011;65585;51.166;16.922;2023-02-23T20:17:40;47.10;;;24.50;;
76667;SDS011;65585;51.166;16.922;2023-02-23T20:20:10;45.60;;;24.98;;
76667;SDS011;65585;51.166;16.922;2023-02-23T20:22:40;50.55;;;25.25;;
76667;SDS011;65585;51.166;16.922;2023-02-23T20:25:11;50.25;;;25.08;;
76667;SDS011;65585;51.166;16.922;2023-02-23T20:27:40;47.33;;;26.30;;
76667;SDS011;65585;51.166;16.922;2023-02-23T20:40:31;68.80;;;36.00;;
76667;SDS011;65585;51.166;16.922;2023-02-23T20:42:58;70.43;;;38.35;;
76667;SDS011;65585;51.166;16.922;2023-02-23T20:45:25;70.15;;;38.17;;
76667;SDS011;65585;51.166;16.922;2023-02-23T20:47:51;75.22;;;39.63;;
76667;SDS011;65585;51.166;16.922;2023-02-23T20:50:26;77.07;;;40.45;;
76667;SDS011;65585;51.166;16.922;2023-02-23T20:53:01;67.78;;;37.83;;
76667;SDS011;65585;51.166;16.922;2023-02-23T20:55:29;75.05;;;42.15;;
76667;SDS011;65585;51.166;16.922;2023-02-23T20:57:56;72.18;;;39.97;;
76667;SDS011;65585;51.166;16.922;2023-02-23T21:00:24;73.47;;;37.35;;
76667;SDS011;65585;51.166;16.922;2023-02-23T21:13:21;68.22;;;35.08;;
76667;SDS011;65585;51.166;16.922;2023-02-23T21:15:53;71.28;;;37.92;;
76667;SDS011;65585;51.166;16.922;2023-02-23T21:18:28;74.05;;;35.67;;
76667;SDS011;65585;51.166;16.922;2023-02-23T21:20:55;60.67;;;33.30;;
76667;SDS011;65585;51.166;16.922;2023-02-23T21:23:22;59.50;;;31.70;;
76667;SDS011;65585;51.166;16.922;2023-02-23T21:25:49;60.50;;;30.45;;
76667;SDS011;65585;51.166;16.922;2023-02-23T21:28:17;52.85;;;29.65;;
76667;SDS011;65585;51.166;16.922;2023-02-23T21:41:22;54.35;;;30.25;;
76667;SDS011;65585;51.166;16.922;2023-02-23T21:43:49;52.08;;;28.52;;
76667;SDS011;65585;51.166;16.922;2023-02-23T21:46:21;52.85;;;28.23;;
76667;SDS011;65585;51.166;16.922;2023-02-23T21:48:48;54.38;;;30.20;;
76667;SDS011;65585;51.166;16.922;2023-02-23T21:51:16;51.45;;;28.05;;
76667;SDS011;65585;51.166;16.922;2023-02-23T21:53:43;53.65;;;29.58;;
76667;SDS011;65585;51.166;16.922;2023-02-23T21:56:11;51.83;;;27.27;;
76667;SDS011;65585;51.166;16.922;2023-02-23T21:58:42;51.35;;;27.70;;
76667;SDS011;65585;51.166;16.922;2023-02-23T22:17:35;54.15;;;26.95;;
76667;SDS011;65585;51.166;16.922;2023-02-23T22:20:03;52.10;;;28.92;;
76667;SDS011;65585;51.166;16.922;2023-02-23T22:22:31;51.78;;;28.63;;
76667;SDS011;65585;51.166;16.922;2023-02-23T22:25:02;51.15;;;28.33;;
76667;SDS011;65585;51.166;16.922;2023-02-23T22:27:28;54.83;;;29.17;;
76667;SDS011;65585;51.166;16.922;2023-02-23T22:29:55;57.83;;;28.52;;
76667;SDS011;65585;51.166;16.922;2023-02-23T22:42:44;47.72;;;27.42;;
76667;SDS011;65585;51.166;16.922;2023-02-23T22:45:14;58.42;;;28.33;;
76667;SDS011;65585;51.166;16.922;2023-02-23T22:47:40;53.60;;;27.58;;
76667;SDS011;65585;51.166;16.922;2023-02-23T22:50:07;47.17;;;26.33;;